createdAt,value
2023-04-03T00:00:48.835Z,963.09
2023-04-03T00:01:48.913Z,963.12
2023-04-03T00:02:48.910Z,963.17
2023-04-03T00:03:48.853Z,963.18
2023-04-03T00:04:48.805Z,963.17
2023-04-03T00:05:48.801Z,963.12
2023-04-03T00:06:48.801Z,963.17
2023-04-03T00:07:48.728Z,963.10
2023-04-03T00:08:48.722Z,963.10
2023-04-03T00:09:48.727Z,963.12
2023-04-03T00:10:48.729Z,963.12
2023-04-03T00:11:48.716Z,963.12
2023-04-03T00:12:48.719Z,963.14
2023-04-03T00:13:48.689Z,963.13
2023-04-03T00:14:48.691Z,963.14
2023-04-03T00:15:48.680Z,963.13
2023-04-03T00:16:48.695Z,963.19
2023-04-03T00:17:48.714Z,963.17
2023-04-03T00:18:48.623Z,963.13
2023-04-03T00:19:48.628Z,963.10
2023-04-03T00:20:48.591Z,963.10
2023-04-03T00:21:48.623Z,963.08
2023-04-03T00:22:48.569Z,963.07
2023-04-03T00:23:48.576Z,963.15
2023-04-03T00:24:48.586Z,963.14
2023-04-03T00:25:48.583Z,963.13
2023-04-03T00:26:48.605Z,963.14
2023-04-03T00:27:48.529Z,963.09
2023-04-03T00:28:48.635Z,963.17
2023-04-03T00:29:48.489Z,963.13
2023-04-03T00:30:48.494Z,963.09
2023-04-03T00:31:48.569Z,963.11
2023-04-03T00:32:48.520Z,963.08
2023-04-03T00:33:48.444Z,963.09
2023-04-03T00:34:48.481Z,963.13
2023-04-03T00:35:48.511Z,963.16
2023-04-03T00:36:48.509Z,963.07
2023-04-03T00:37:48.422Z,963.15
2023-04-03T00:38:48.410Z,963.09
2023-04-03T00:39:48.391Z,963.15
2023-04-03T00:40:48.416Z,963.11
2023-04-03T00:41:48.369Z,963.11
2023-04-03T00:42:48.377Z,963.12
2023-04-03T00:43:48.367Z,963.11
2023-04-03T00:44:48.346Z,963.10
2023-04-03T00:45:48.349Z,963.12
2023-04-03T00:46:48.341Z,963.11
2023-04-03T00:47:48.359Z,963.11
2023-04-03T00:48:48.344Z,963.17
2023-04-03T00:49:48.273Z,963.15
2023-04-03T00:50:48.310Z,963.07
2023-04-03T00:51:48.256Z,963.06
2023-04-03T00:52:48.292Z,963.08
2023-04-03T00:53:48.226Z,963.13
2023-04-03T00:54:48.265Z,963.10
2023-04-03T00:55:48.222Z,963.08
2023-04-03T00:56:48.230Z,963.07
2023-04-03T00:57:48.184Z,963.10
2023-04-03T00:58:48.230Z,963.06
2023-04-03T00:59:48.197Z,963.05
2023-04-03T01:00:48.153Z,963.10
2023-04-03T01:01:48.184Z,963.06
2023-04-03T01:02:48.172Z,963.05
2023-04-03T01:03:48.117Z,963.03
2023-04-03T01:04:48.101Z,963.04
2023-04-03T01:05:48.085Z,963.05
2023-04-03T01:06:48.109Z,963.05
2023-04-03T01:07:48.092Z,963.07
2023-04-03T01:08:48.124Z,963.07
2023-04-03T01:09:48.085Z,963.03
2023-04-03T01:10:48.109Z,963.04
2023-04-03T01:11:48.106Z,963.08
2023-04-03T01:12:48.008Z,963.09
2023-04-03T01:13:48.006Z,963.10
2023-04-03T01:14:48.013Z,963.10
2023-04-03T01:15:47.994Z,963.06
2023-04-03T01:16:47.983Z,963.06
2023-04-03T01:17:48.013Z,963.12
2023-04-03T01:18:47.949Z,963.07
2023-04-03T01:19:47.948Z,963.03
2023-04-03T01:20:47.935Z,963.11
2023-04-03T01:21:47.942Z,963.12
2023-04-03T01:22:47.965Z,963.09
2023-04-03T01:23:47.919Z,963.14
2023-04-03T01:24:47.878Z,963.17
2023-04-03T01:25:47.863Z,963.12
2023-04-03T01:26:47.864Z,963.09
2023-04-03T01:27:47.855Z,963.15
2023-04-03T01:28:47.859Z,963.15
2023-04-03T01:29:47.818Z,963.13
2023-04-03T01:30:47.815Z,963.12
2023-04-03T01:31:47.882Z,963.17
2023-04-03T01:32:47.830Z,963.19
2023-04-03T01:33:47.808Z,963.18
2023-04-03T01:34:47.787Z,963.20
2023-04-03T01:35:47.833Z,963.20
2023-04-03T01:36:47.759Z,963.17
2023-04-03T01:37:47.757Z,963.20
2023-04-03T01:38:47.730Z,963.23
2023-04-03T01:39:47.717Z,963.20
2023-04-03T01:40:47.719Z,963.24
2023-04-03T01:41:47.710Z,963.25
2023-04-03T01:42:47.704Z,963.22
2023-04-03T01:43:47.676Z,963.21
2023-04-03T01:44:47.652Z,963.23
2023-04-03T01:45:47.768Z,963.23
2023-04-03T01:46:47.646Z,963.13
2023-04-03T01:47:47.648Z,963.25
2023-04-03T01:48:47.617Z,963.22
2023-04-03T01:49:47.606Z,963.18
2023-04-03T01:50:47.597Z,963.21
2023-04-03T01:51:47.609Z,963.27
2023-04-03T01:52:47.604Z,963.21
2023-04-03T01:53:47.554Z,963.23
2023-04-03T01:54:47.549Z,963.18
2023-04-03T01:55:47.565Z,963.15
2023-04-03T01:56:55.922Z,963.18
2023-04-03T01:57:47.553Z,963.18
2023-04-03T01:58:47.557Z,963.22
2023-04-03T01:59:47.504Z,963.14
2023-04-03T02:00:47.534Z,963.17
2023-04-03T02:01:47.469Z,963.14
2023-04-03T02:02:47.510Z,963.13
2023-04-03T02:03:47.453Z,963.16
2023-04-03T02:04:47.445Z,963.15
2023-04-03T02:05:47.422Z,963.16
2023-04-03T02:06:47.436Z,963.12
2023-04-03T02:07:47.433Z,963.16
2023-04-03T02:08:47.418Z,963.15
2023-04-03T02:09:47.400Z,963.14
2023-04-03T02:10:47.373Z,963.14
2023-04-03T02:11:47.367Z,963.19
2023-04-03T02:12:47.408Z,963.16
2023-04-03T02:13:47.352Z,963.14
2023-04-03T02:14:47.341Z,963.18
2023-04-03T02:15:47.318Z,963.18
2023-04-03T02:16:47.376Z,963.16
2023-04-03T02:17:47.443Z,963.16
2023-04-03T02:18:47.300Z,963.17
2023-04-03T02:19:47.276Z,963.15
2023-04-03T02:20:47.266Z,963.15
2023-04-03T02:21:47.275Z,963.12
2023-04-03T02:22:47.229Z,963.13
2023-04-03T02:23:47.230Z,963.15
2023-04-03T02:24:47.268Z,963.11
2023-04-03T02:25:47.221Z,963.06
2023-04-03T02:26:47.204Z,963.13
2023-04-03T02:27:47.170Z,963.10
2023-04-03T02:28:47.244Z,963.08
2023-04-03T02:29:47.166Z,963.10
2023-04-03T02:30:47.154Z,963.04
2023-04-03T02:31:47.166Z,963.05
2023-04-03T02:32:47.168Z,963.05
2023-04-03T02:33:47.118Z,963.02
2023-04-03T02:34:47.107Z,963.09
2023-04-03T02:35:47.163Z,963.10
2023-04-03T02:36:47.077Z,963.09
2023-04-03T02:37:47.077Z,963.13
2023-04-03T02:38:47.075Z,963.08
2023-04-03T02:39:47.124Z,963.05
2023-04-03T02:40:47.040Z,963.05
2023-04-03T02:41:47.141Z,963.10
2023-04-03T02:42:47.027Z,963.14
2023-04-03T02:43:47.009Z,963.09
2023-04-03T02:44:47.016Z,963.08
2023-04-03T02:45:47.069Z,963.10
2023-04-03T02:46:46.988Z,963.15
2023-04-03T02:47:47.010Z,963.08
2023-04-03T02:48:46.983Z,963.10
2023-04-03T02:49:46.945Z,963.17
2023-04-03T02:50:46.930Z,963.09
2023-04-03T02:51:47.156Z,963.11
2023-04-03T02:52:46.976Z,963.09
2023-04-03T02:53:46.935Z,963.11
2023-04-03T02:54:46.945Z,963.07
2023-04-03T02:55:46.907Z,963.07
2023-04-03T02:56:46.900Z,963.07
2023-04-03T02:57:46.843Z,963.11
2023-04-03T02:58:46.857Z,963.06
2023-04-03T02:59:46.831Z,963.09
2023-04-03T03:00:46.813Z,963.10
2023-04-03T03:01:46.874Z,963.09
2023-04-03T03:02:46.922Z,963.16
2023-04-03T03:03:46.794Z,963.14
2023-04-03T03:04:46.811Z,963.13
2023-04-03T03:05:46.775Z,963.15
2023-04-03T03:06:46.772Z,963.20
2023-04-03T03:07:46.789Z,963.15
2023-04-03T03:08:46.813Z,963.16
2023-04-03T03:09:46.752Z,963.16
2023-04-03T03:10:46.735Z,963.16
2023-04-03T03:11:46.704Z,963.18
2023-04-03T03:12:46.704Z,963.12
2023-04-03T03:13:46.704Z,963.23
2023-04-03T03:14:46.699Z,963.21
2023-04-03T03:15:46.662Z,963.17
2023-04-03T03:16:46.658Z,963.18
2023-04-03T03:17:46.653Z,963.17
2023-04-03T03:18:46.662Z,963.19
2023-04-03T03:19:46.625Z,963.18
2023-04-03T03:20:46.597Z,963.10
2023-04-03T03:21:46.605Z,963.09
2023-04-03T03:22:46.592Z,963.10
2023-04-03T03:23:46.576Z,963.15
2023-04-03T03:24:46.566Z,963.10
2023-04-03T03:25:46.549Z,963.15
2023-04-03T03:26:46.554Z,963.14
2023-04-03T03:27:46.545Z,963.14
2023-04-03T03:28:46.516Z,963.17
2023-04-03T03:29:46.924Z,963.16
2023-04-03T03:30:46.477Z,963.15
2023-04-03T03:31:46.528Z,963.18
2023-04-03T03:32:46.639Z,963.14
2023-04-03T03:33:46.457Z,963.18
2023-04-03T03:34:46.472Z,963.17
2023-04-03T03:35:46.464Z,963.14
2023-04-03T03:36:46.470Z,963.16
2023-04-03T03:37:46.426Z,963.14
2023-04-03T03:38:46.408Z,963.15
2023-04-03T03:39:46.415Z,963.15
2023-04-03T03:40:46.370Z,963.16
2023-04-03T03:41:46.393Z,963.17
2023-04-03T03:42:46.355Z,963.09
2023-04-03T03:43:46.341Z,963.19
2023-04-03T03:44:46.341Z,963.17
2023-04-03T03:45:46.435Z,963.18
2023-04-03T03:46:46.319Z,963.18
2023-04-03T03:47:46.309Z,963.16
2023-04-03T03:48:46.284Z,963.17
2023-04-03T03:49:46.328Z,963.18
2023-04-03T03:50:46.259Z,963.17
2023-04-03T03:51:46.297Z,963.18
2023-04-03T03:52:46.508Z,963.16
2023-04-03T03:53:46.242Z,963.15
2023-04-03T03:54:46.241Z,963.14
2023-04-03T03:55:46.253Z,963.12
2023-04-03T03:56:46.218Z,963.16
2023-04-03T03:57:46.205Z,963.17
2023-04-03T03:58:46.264Z,963.17
2023-04-03T03:59:46.191Z,963.18
2023-04-03T04:00:46.171Z,963.16
2023-04-03T04:01:46.196Z,963.16
2023-04-03T04:02:46.261Z,963.21
2023-04-03T04:03:46.314Z,963.16
2023-04-03T04:04:46.118Z,963.13
2023-04-03T04:05:46.115Z,963.14
2023-04-03T04:06:46.098Z,963.14
2023-04-03T04:07:46.104Z,963.13
2023-04-03T04:08:46.110Z,963.11
2023-04-03T04:09:46.164Z,963.15
2023-04-03T04:10:46.075Z,963.15
2023-04-03T04:11:46.123Z,963.13
2023-04-03T04:12:46.038Z,963.11
2023-04-03T04:13:46.044Z,963.09
2023-04-03T04:14:46.012Z,963.09
2023-04-03T04:15:45.994Z,963.10
2023-04-03T04:16:46.015Z,963.11
2023-04-03T04:17:45.988Z,963.14
2023-04-03T04:18:46.010Z,963.10
2023-04-03T04:19:45.967Z,963.12
2023-04-03T04:20:45.936Z,963.15
2023-04-03T04:21:45.948Z,963.10
2023-04-03T04:22:45.920Z,963.17
2023-04-03T04:23:45.947Z,963.17
2023-04-03T04:24:45.944Z,963.16
2023-04-03T04:25:45.879Z,963.19
2023-04-03T04:26:46.028Z,963.18
2023-04-03T04:27:45.862Z,963.15
2023-04-03T04:28:45.845Z,963.21
2023-04-03T04:29:45.858Z,963.20
2023-04-03T04:30:45.906Z,963.17
2023-04-03T04:31:45.834Z,963.26
2023-04-03T04:32:45.853Z,963.17
2023-04-03T04:33:45.788Z,963.20
2023-04-03T04:34:45.898Z,963.20
2023-04-03T04:35:45.850Z,963.22
2023-04-03T04:36:45.948Z,963.22
2023-04-03T04:37:45.769Z,963.21
2023-04-03T04:38:45.746Z,963.23
2023-04-03T04:39:45.757Z,963.24
2023-04-03T04:40:45.812Z,963.24
2023-04-03T04:41:45.736Z,963.26
2023-04-03T04:42:45.692Z,963.26
2023-04-03T04:43:45.680Z,963.25
2023-04-03T04:44:45.724Z,963.32
2023-04-03T04:45:45.782Z,963.27
2023-04-03T04:46:45.733Z,963.26
2023-04-03T04:47:45.723Z,963.35
2023-04-03T04:48:45.649Z,963.29
2023-04-03T04:49:45.776Z,963.27
2023-04-03T04:50:46.146Z,963.30
2023-04-03T04:51:51.902Z,963.30
2023-04-03T04:52:45.578Z,963.30
2023-04-03T04:53:45.602Z,963.32
2023-04-03T04:54:46.405Z,963.32
2023-04-03T04:55:45.571Z,963.31
2023-04-03T04:56:45.577Z,963.29
2023-04-03T04:57:46.268Z,963.32
2023-04-03T04:58:45.544Z,963.28
2023-04-03T04:59:45.549Z,963.31
2023-04-03T05:00:45.547Z,963.32
2023-04-03T05:01:45.538Z,963.29
2023-04-03T05:02:45.517Z,963.28
2023-04-03T05:03:45.486Z,963.32
2023-04-03T05:04:45.528Z,963.31
2023-04-03T05:05:45.503Z,963.31
2023-04-03T05:06:45.484Z,963.32
2023-04-03T05:07:45.429Z,963.37
2023-04-03T05:08:45.400Z,963.41
2023-04-03T05:09:45.395Z,963.38
2023-04-03T05:10:45.407Z,963.39
2023-04-03T05:11:45.393Z,963.37
2023-04-03T05:12:45.367Z,963.42
2023-04-03T05:13:45.354Z,963.40
2023-04-03T05:14:45.373Z,963.41
2023-04-03T05:15:45.607Z,963.40
2023-04-03T05:16:45.345Z,963.42
2023-04-03T05:17:45.465Z,963.44
2023-04-03T05:18:45.293Z,963.37
2023-04-03T05:19:45.292Z,963.44
2023-04-03T05:20:45.284Z,963.43
2023-04-03T05:21:45.280Z,963.38
2023-04-03T05:22:45.326Z,963.40
2023-04-03T05:23:45.262Z,963.39
2023-04-03T05:24:45.290Z,963.40
2023-04-03T05:25:45.261Z,963.43
2023-04-03T05:26:45.336Z,963.44
2023-04-03T05:27:45.253Z,963.45
2023-04-03T05:28:45.253Z,963.43
2023-04-03T05:29:45.899Z,963.42
2023-04-03T05:30:45.206Z,963.49
2023-04-03T05:31:47.009Z,963.48
2023-04-03T05:32:45.160Z,963.46
2023-04-03T05:33:45.149Z,963.44
2023-04-03T05:34:45.229Z,963.47
2023-04-03T05:35:45.180Z,963.46
2023-04-03T05:36:45.110Z,963.49
2023-04-03T05:37:45.088Z,963.43
2023-04-03T05:38:45.090Z,963.48
2023-04-03T05:39:45.069Z,963.46
2023-04-03T05:40:45.428Z,963.46
2023-04-03T05:41:45.068Z,963.46
2023-04-03T05:42:45.015Z,963.44
2023-04-03T05:43:45.082Z,963.48
2023-04-03T05:44:45.062Z,963.48
2023-04-03T05:45:46.843Z,963.45
2023-04-03T05:46:44.982Z,963.48
2023-04-03T05:47:45.025Z,963.47
2023-04-03T05:48:45.011Z,963.50
2023-04-03T05:49:44.944Z,963.51
2023-04-03T05:50:44.989Z,963.51
2023-04-03T05:51:44.972Z,963.57
2023-04-03T05:52:44.949Z,963.54
2023-04-03T05:53:44.909Z,963.52
2023-04-03T05:54:44.922Z,963.55
2023-04-03T05:55:44.940Z,963.51
2023-04-03T05:56:44.899Z,963.50
2023-04-03T05:57:44.869Z,963.53
2023-04-03T05:58:44.847Z,963.56
2023-04-03T05:59:46.728Z,963.53
2023-04-03T06:00:44.896Z,963.55
2023-04-03T06:01:49.769Z,963.50
2023-04-03T06:02:44.898Z,963.56
2023-04-03T06:03:46.572Z,963.59
2023-04-03T06:04:44.885Z,963.57
2023-04-03T06:05:45.785Z,963.57
2023-04-03T06:06:44.807Z,963.58
2023-04-03T06:07:44.804Z,963.59
2023-04-03T06:08:45.336Z,963.56
2023-04-03T06:09:44.764Z,963.60
2023-04-03T06:10:44.745Z,963.57
2023-04-03T06:11:44.764Z,963.56
2023-04-03T06:12:44.755Z,963.50
2023-04-03T06:13:44.703Z,963.59
2023-04-03T06:14:44.667Z,963.54
2023-04-03T06:15:44.708Z,963.52
2023-04-03T06:16:44.783Z,963.56
2023-04-03T06:17:44.658Z,963.58
2023-04-03T06:18:44.812Z,963.60
2023-04-03T06:19:44.623Z,963.56
2023-04-03T06:20:44.763Z,963.60
2023-04-03T06:21:44.611Z,963.62
2023-04-03T06:22:44.585Z,963.60
2023-04-03T06:23:44.634Z,963.68
2023-04-03T06:24:44.560Z,963.65
2023-04-03T06:25:44.670Z,963.68
2023-04-03T06:26:44.544Z,963.66
2023-04-03T06:27:44.636Z,963.67
2023-04-03T06:28:44.549Z,963.64
2023-04-03T06:29:44.515Z,963.66
2023-04-03T06:30:44.556Z,963.65
2023-04-03T06:31:44.492Z,963.67
2023-04-03T06:32:44.528Z,963.66
2023-04-03T06:33:44.493Z,963.61
2023-04-03T06:34:44.458Z,963.65
2023-04-03T06:35:44.467Z,963.69
2023-04-03T06:36:44.435Z,963.65
2023-04-03T06:37:44.458Z,963.68
2023-04-03T06:38:44.462Z,963.74
2023-04-03T06:39:44.410Z,963.72
2023-04-03T06:40:44.400Z,963.75
2023-04-03T06:41:44.427Z,963.68
2023-04-03T06:42:44.392Z,963.74
2023-04-03T06:43:44.355Z,963.71
2023-04-03T06:44:44.336Z,963.72
2023-04-03T06:45:44.358Z,963.71
2023-04-03T06:46:44.384Z,963.69
2023-04-03T06:47:44.336Z,963.74
2023-04-03T06:48:44.303Z,963.74
2023-04-03T06:49:44.357Z,963.72
2023-04-03T06:50:44.279Z,963.71
2023-04-03T06:51:44.306Z,963.72
2023-04-03T06:52:44.255Z,963.77
2023-04-03T06:53:44.306Z,963.75
2023-04-03T06:54:44.295Z,963.75
2023-04-03T06:55:44.265Z,963.77
2023-04-03T06:56:44.213Z,963.79
2023-04-03T06:57:44.205Z,963.78
2023-04-03T06:58:44.244Z,963.72
2023-04-03T06:59:44.221Z,963.79
2023-04-03T07:00:44.192Z,963.76
2023-04-03T07:01:44.192Z,963.83
2023-04-03T07:02:44.248Z,963.78
2023-04-03T07:03:44.130Z,963.82
2023-04-03T07:04:44.131Z,963.82
2023-04-03T07:05:44.109Z,963.84
2023-04-03T07:06:44.161Z,963.83
2023-04-03T07:07:44.106Z,963.84
2023-04-03T07:08:44.075Z,963.85
2023-04-03T07:09:45.172Z,963.87
2023-04-03T07:10:44.050Z,963.86
2023-04-03T07:11:44.408Z,963.85
2023-04-03T07:12:44.028Z,963.86
2023-04-03T07:13:44.022Z,963.87
2023-04-03T07:14:44.013Z,963.93
2023-04-03T07:15:44.099Z,963.87
2023-04-03T07:16:43.992Z,963.91
2023-04-03T07:17:44.008Z,963.89
2023-04-03T07:18:44.011Z,963.93
2023-04-03T07:19:43.960Z,963.93
2023-04-03T07:20:44.007Z,963.94
2023-04-03T07:21:43.928Z,963.92
2023-04-03T07:22:43.945Z,964.01
2023-04-03T07:23:43.908Z,963.95
2023-04-03T07:24:44.008Z,963.98
2023-04-03T07:25:43.885Z,963.97
2023-04-03T07:26:43.940Z,963.98
2023-04-03T07:27:43.895Z,963.98
2023-04-03T07:28:43.916Z,963.98
2023-04-03T07:29:43.854Z,964.03
2023-04-03T07:30:43.842Z,964.05
2023-04-03T07:31:43.844Z,964.07
2023-04-03T07:32:43.939Z,964.09
2023-04-03T07:33:43.851Z,964.08
2023-04-03T07:34:43.818Z,964.15
2023-04-03T07:35:43.845Z,964.04
2023-04-03T07:36:43.810Z,964.11
2023-04-03T07:37:43.772Z,964.13
2023-04-03T07:38:43.782Z,964.12
2023-04-03T07:39:43.774Z,964.13
2023-04-03T07:40:43.852Z,964.15
2023-04-03T07:41:43.702Z,964.08
2023-04-03T07:42:43.816Z,964.16
2023-04-03T07:43:43.689Z,964.14
2023-04-03T07:44:43.691Z,964.18
2023-04-03T07:45:43.814Z,964.20
2023-04-03T07:46:43.775Z,964.18
2023-04-03T07:47:43.736Z,964.19
2023-04-03T07:48:43.670Z,964.20
2023-04-03T07:49:43.613Z,964.23
2023-04-03T07:50:43.631Z,964.23
2023-04-03T07:51:43.609Z,964.26
2023-04-03T07:52:43.640Z,964.22
2023-04-03T07:53:43.599Z,964.24
2023-04-03T07:54:43.578Z,964.25
2023-04-03T07:55:43.608Z,964.27
2023-04-03T07:56:43.568Z,964.29
2023-04-03T07:57:43.581Z,964.27
2023-04-03T07:58:43.531Z,964.27
2023-04-03T07:59:44.674Z,964.27
2023-04-03T08:00:43.539Z,964.32
2023-04-03T08:01:43.558Z,964.37
2023-04-03T08:02:43.981Z,964.30
2023-04-03T08:03:43.700Z,964.32
2023-04-03T08:04:43.526Z,964.38
2023-04-03T08:05:43.481Z,964.29
2023-04-03T08:06:46.861Z,964.29
2023-04-03T08:07:43.649Z,964.33
2023-04-03T08:08:43.429Z,964.29
2023-04-03T08:09:43.417Z,964.32
2023-04-03T08:10:43.499Z,964.32
2023-04-03T08:11:43.409Z,964.33
2023-04-03T08:12:43.462Z,964.32
2023-04-03T08:13:43.447Z,964.33
2023-04-03T08:14:43.349Z,964.30
2023-04-03T08:15:43.324Z,964.36
2023-04-03T08:16:43.367Z,964.33
2023-04-03T08:17:43.348Z,964.36
2023-04-03T08:18:43.473Z,964.30
2023-04-03T08:19:43.391Z,964.27
2023-04-03T08:20:43.323Z,964.35
2023-04-03T08:21:43.313Z,964.36
2023-04-03T08:22:43.308Z,964.33
2023-04-03T08:23:43.275Z,964.32
2023-04-03T08:24:56.237Z,964.33
2023-04-03T08:25:43.261Z,964.26
2023-04-03T08:26:43.250Z,964.24
2023-04-03T08:27:43.215Z,964.33
2023-04-03T08:28:43.220Z,964.31
2023-04-03T08:29:43.178Z,964.29
2023-04-03T08:30:43.186Z,964.32
2023-04-03T08:31:43.151Z,964.31
2023-04-03T08:32:43.318Z,964.34
2023-04-03T08:33:43.153Z,964.30
2023-04-03T08:34:43.133Z,964.30
2023-04-03T08:35:43.435Z,964.33
2023-04-03T08:36:43.543Z,964.32
2023-04-03T08:37:43.111Z,964.31
2023-04-03T08:38:43.402Z,964.29
2023-04-03T08:39:43.058Z,964.35
2023-04-03T08:40:43.056Z,964.30
2023-04-03T08:41:43.114Z,964.33
2023-04-03T08:42:43.071Z,964.33
2023-04-03T08:43:43.093Z,964.35
2023-04-03T08:44:43.028Z,964.36
2023-04-03T08:45:43.000Z,964.39
2023-04-03T08:46:43.068Z,964.40
2023-04-03T08:47:43.042Z,964.40
2023-04-03T08:48:43.018Z,964.43
2023-04-03T08:49:43.040Z,964.40
2023-04-03T08:50:43.003Z,964.43
2023-04-03T08:51:43.102Z,964.46
2023-04-03T08:52:42.961Z,964.42
2023-04-03T08:53:42.938Z,964.42
2023-04-03T08:54:43.074Z,964.43
2023-04-03T08:55:42.883Z,964.38
2023-04-03T08:56:42.889Z,964.38
2023-04-03T08:57:42.968Z,964.36
2023-04-03T08:58:42.946Z,964.41
2023-04-03T08:59:42.930Z,964.39
2023-04-03T09:00:42.842Z,964.42
2023-04-03T09:01:42.892Z,964.47
2023-04-03T09:02:42.866Z,964.50
2023-04-03T09:03:42.948Z,964.46
2023-04-03T09:04:42.917Z,964.50
2023-04-03T09:05:42.780Z,964.50
2023-04-03T09:06:42.772Z,964.44
2023-04-03T09:07:42.750Z,964.42
2023-04-03T09:08:42.835Z,964.44
2023-04-03T09:09:42.778Z,964.47
2023-04-03T09:10:42.768Z,964.50
2023-04-03T09:11:42.703Z,964.51
2023-04-03T09:12:42.732Z,964.49
2023-04-03T09:13:42.694Z,964.42
2023-04-03T09:14:42.791Z,964.46
2023-04-03T09:15:42.893Z,964.43
2023-04-03T09:16:42.667Z,964.43
2023-04-03T09:17:42.714Z,964.47
2023-04-03T09:19:55.308Z,964.44
2023-04-03T09:20:55.310Z,964.47
2023-04-03T09:21:55.393Z,964.44
2023-04-03T09:22:55.297Z,964.41
2023-04-03T09:23:55.271Z,964.43
2023-04-03T09:24:55.274Z,964.40
2023-04-03T09:25:55.307Z,964.41
2023-04-03T09:26:55.262Z,964.36
2023-04-03T09:27:55.242Z,964.34
2023-04-03T09:28:55.213Z,964.35
2023-04-03T09:29:55.213Z,964.36
2023-04-03T09:30:55.191Z,964.39
2023-04-03T09:31:55.293Z,964.33
2023-04-03T09:32:55.313Z,964.33
2023-04-03T09:33:55.206Z,964.36
2023-04-03T09:34:55.617Z,964.33
2023-04-03T09:35:55.162Z,964.38
2023-04-03T09:36:55.190Z,964.31
2023-04-03T09:39:07.762Z,964.36
2023-04-03T09:40:16.275Z,964.37
2023-04-03T09:41:07.798Z,964.36
2023-04-03T09:42:07.795Z,964.36
2023-04-03T09:43:07.896Z,964.36
2023-04-03T09:44:07.768Z,964.37
2023-04-03T09:45:07.868Z,964.37
2023-04-03T09:46:07.791Z,964.31
2023-04-03T09:47:07.794Z,964.34
2023-04-03T09:48:10.341Z,964.29
2023-04-03T09:49:09.788Z,964.34
2023-04-03T09:50:07.749Z,964.33
2023-04-03T09:51:07.695Z,964.27
2023-04-03T09:52:07.743Z,964.31
2023-04-03T09:53:07.660Z,964.33
2023-04-03T09:54:07.659Z,964.36
2023-04-03T09:55:07.708Z,964.36
2023-04-03T09:56:07.734Z,964.38
2023-04-03T09:57:07.733Z,964.35
2023-04-03T09:58:07.633Z,964.31
2023-04-03T09:59:07.626Z,964.36
2023-04-03T10:00:07.647Z,964.31
2023-04-03T10:01:07.655Z,964.34
2023-04-03T10:02:07.600Z,964.31
2023-04-03T10:03:07.735Z,964.38
2023-04-03T10:04:07.748Z,964.40
2023-04-03T10:05:09.838Z,964.34
2023-04-03T10:06:07.556Z,964.35
2023-04-03T10:07:07.556Z,964.39
2023-04-03T10:08:08.428Z,964.36
2023-04-03T10:09:07.502Z,964.37
2023-04-03T10:10:07.542Z,964.41
2023-04-03T10:11:07.467Z,964.43
2023-04-03T10:12:07.463Z,964.38
2023-04-03T10:13:08.165Z,964.36
2023-04-03T10:14:09.123Z,964.36
2023-04-03T10:15:07.452Z,964.37
2023-04-03T10:16:07.489Z,964.34
2023-04-03T10:17:07.448Z,964.44
2023-04-03T10:18:21.599Z,964.42
2023-04-03T10:19:07.379Z,964.34
2023-04-03T10:20:07.411Z,964.42
2023-04-03T10:21:11.748Z,964.38
2023-04-03T10:22:07.362Z,964.30
2023-04-03T10:23:07.349Z,964.33
2023-04-03T10:24:07.329Z,964.35
2023-04-03T10:25:07.309Z,964.35
2023-04-03T10:26:07.343Z,964.29
2023-04-03T10:27:07.289Z,964.30
2023-04-03T10:28:07.316Z,964.34
2023-04-03T10:29:07.293Z,964.35
2023-04-03T10:30:07.281Z,964.35
2023-04-03T10:31:07.316Z,964.34
2023-04-03T10:32:07.311Z,964.34
2023-04-03T10:33:07.295Z,964.35
2023-04-03T10:34:07.256Z,964.35
2023-04-03T10:35:07.199Z,964.46
2023-04-03T10:36:07.219Z,964.42
2023-04-03T10:37:07.189Z,964.39
2023-04-03T10:38:07.176Z,964.37
2023-04-03T10:39:07.172Z,964.44
2023-04-03T10:40:07.147Z,964.38
2023-04-03T10:41:07.195Z,964.35
2023-04-03T10:42:16.748Z,964.45
2023-04-03T10:43:07.133Z,964.40
2023-04-03T10:44:07.122Z,964.40
2023-04-03T10:45:07.151Z,964.43
2023-04-03T10:46:07.229Z,964.48
2023-04-03T10:47:07.075Z,964.51
2023-04-03T10:48:07.093Z,964.47
2023-04-03T10:49:07.045Z,964.48
2023-04-03T10:50:07.056Z,964.46
2023-04-03T10:51:07.048Z,964.50
2023-04-03T10:52:07.075Z,964.49
2023-04-03T10:53:07.010Z,964.54
2023-04-03T10:54:07.019Z,964.46
2023-04-03T10:55:07.059Z,964.50
2023-04-03T10:56:07.064Z,964.43
2023-04-03T10:57:12.670Z,964.44
2023-04-03T10:58:07.031Z,964.48
2023-04-03T10:59:06.953Z,964.45
2023-04-03T11:00:06.951Z,964.44
2023-04-03T11:01:06.996Z,964.42
2023-04-03T11:02:06.928Z,964.38
2023-04-03T11:03:07.009Z,964.38
2023-04-03T11:04:07.304Z,964.43
2023-04-03T11:05:06.876Z,964.45
2023-04-03T11:06:06.921Z,964.44
2023-04-03T11:07:06.910Z,964.44
2023-04-03T11:08:06.869Z,964.43
2023-04-03T11:09:06.835Z,964.41
2023-04-03T11:10:07.077Z,964.44
2023-04-03T11:11:06.857Z,964.34
2023-04-03T11:12:06.850Z,964.38
2023-04-03T11:13:06.809Z,964.36
2023-04-03T11:14:06.786Z,964.39
2023-04-03T11:15:06.776Z,964.37
2023-04-03T11:16:06.834Z,964.34
2023-04-03T11:17:06.986Z,964.30
2023-04-03T11:18:07.762Z,964.32
2023-04-03T11:19:06.724Z,964.32
2023-04-03T11:20:06.775Z,964.34
2023-04-03T11:21:06.741Z,964.30
2023-04-03T11:22:06.729Z,964.32
2023-04-03T11:23:06.677Z,964.27
2023-04-03T11:24:06.690Z,964.32
2023-04-03T11:25:06.811Z,964.26
2023-04-03T11:26:06.744Z,964.27
2023-04-03T11:27:06.640Z,964.33
2023-04-03T11:28:06.647Z,964.28
2023-04-03T11:29:06.724Z,964.26
2023-04-03T11:30:06.607Z,964.20
2023-04-03T11:31:06.668Z,964.23
2023-04-03T11:32:06.609Z,964.22
2023-04-03T11:33:06.648Z,964.23
2023-04-03T11:34:06.599Z,964.24
2023-04-03T11:35:08.230Z,964.25
2023-04-03T11:36:18.962Z,964.19
2023-04-03T11:37:06.537Z,964.24
2023-04-03T11:38:06.582Z,964.21
2023-04-03T11:39:06.517Z,964.20
2023-04-03T11:40:06.537Z,964.17
2023-04-03T11:41:06.509Z,964.15
2023-04-03T11:42:12.884Z,964.17
2023-04-03T11:43:06.553Z,964.18
2023-04-03T11:44:06.465Z,964.12
2023-04-03T11:45:06.451Z,964.10
2023-04-03T11:46:06.441Z,964.13
2023-04-03T11:47:06.535Z,964.18
2023-04-03T11:48:20.989Z,964.10
2023-04-03T11:49:06.402Z,964.10
2023-04-03T11:50:06.443Z,964.09
2023-04-03T11:51:06.414Z,964.10
2023-04-03T11:52:06.373Z,964.06
2023-04-03T11:53:06.400Z,964.10
2023-04-03T11:54:06.350Z,964.12
2023-04-03T11:55:06.355Z,964.06
2023-04-03T11:56:06.453Z,964.06
2023-04-03T11:57:06.349Z,964.08
2023-04-03T11:58:06.313Z,964.06
2023-04-03T11:59:06.312Z,963.97
2023-04-03T12:00:08.128Z,964.01
2023-04-03T12:01:06.354Z,964.02
2023-04-03T12:02:07.398Z,964.00
2023-04-03T12:03:06.305Z,964.03
2023-04-03T12:04:06.340Z,963.99
2023-04-03T12:05:06.230Z,963.96
2023-04-03T12:06:06.208Z,963.97
2023-04-03T12:07:06.232Z,963.98
2023-04-03T12:08:06.232Z,963.95
2023-04-03T12:09:06.225Z,963.94
2023-04-03T12:10:06.190Z,963.97
2023-04-03T12:11:06.194Z,963.98
2023-04-03T12:12:06.158Z,963.90
2023-04-03T12:13:06.142Z,963.89
2023-04-03T12:14:06.132Z,963.95
2023-04-03T12:15:06.118Z,963.93
2023-04-03T12:16:06.096Z,963.91
2023-04-03T12:17:06.093Z,963.86
2023-04-03T12:18:06.200Z,963.86
2023-04-03T12:19:06.081Z,963.82
2023-04-03T12:20:06.100Z,963.89
2023-04-03T12:21:06.033Z,963.84
2023-04-03T12:22:06.040Z,963.87
2023-04-03T12:23:06.331Z,963.82
2023-04-03T12:24:06.113Z,963.83
2023-04-03T12:25:06.011Z,963.86
2023-04-03T12:26:06.014Z,963.81
2023-04-03T12:27:06.005Z,963.83
2023-04-03T12:28:06.835Z,963.81
2023-04-03T12:29:06.016Z,963.84
2023-04-03T12:30:05.997Z,963.81
2023-04-03T12:31:05.946Z,963.76